Time;durP1;ratioP1;P1;durP2;ratioP2;P2;SDS_P1;SDS_P2;PMS_P1;PMS_P2;Temp;Humidity;BMP_temperature;BMP_pressure;BME280_temperature;BME280_humidity;BME280_pressure;Samples;Min_cycle;Max_cycle;Signal;HPM_P1;HPM_P2
2021/01/28 00:00:20;;;;;;;74.90;18.17;;;5.50;99.90;;;;;;5042911;28;20060;-69
2021/01/28 00:02:46;;;;;;;64.55;23.88;;;;;;;;;;5037101;28;20552;-69
2021/01/28 00:05:12;;;;;;;86.53;22.38;;;;;;;;;;5039665;28;20036;-69
2021/01/28 00:07:38;;;;;;;55.22;14.82;;;;;;;;;;5038250;28;20091;-69
2021/01/28 00:10:04;;;;;;;127.95;27.25;;;5.50;99.90;;;;;;5038940;28;20470;-69
2021/01/28 00:12:31;;;;;;;66.93;16.40;;;5.60;99.90;;;;;;5044446;28;20503;-69
2021/01/28 00:14:57;;;;;;;104.47;24.15;;;5.60;99.90;;;;;;5047007;28;20116;-69
2021/01/28 00:17:23;;;;;;;99.93;21.48;;;;;;;;;;5038098;28;20108;-69
2021/01/28 00:19:49;;;;;;;118.07;26.85;;;;;;;;;;5041779;28;20037;-70
2021/01/28 00:22:14;;;;;;;107.55;27.80;;;6.20;99.90;;;;;;5045154;28;20049;-70
2021/01/28 00:24:40;;;;;;;103.97;24.90;;;;;;;;;;5052758;28;25624;-70
2021/01/28 00:27:06;;;;;;;134.80;28.75;;;5.60;99.90;;;;;;5052198;28;20025;-70
2021/01/28 00:29:32;;;;;;;80.53;15.77;;;5.60;99.90;;;;;;5034946;28;20029;-70
2021/01/28 00:31:58;;;;;;;52.10;17.80;;;;;;;;;;5030476;28;20175;-70
2021/01/28 00:34:25;;;;;;;77.47;20.83;;;;;;;;;;5030237;28;20057;-70
2021/01/28 00:36:51;;;;;;;57.75;15.05;;;5.90;99.90;;;;;;5040301;28;20031;-70
2021/01/28 00:39:17;;;;;;;78.57;16.67;;;;;;;;;;5045661;28;20041;-70
2021/01/28 00:41:43;;;;;;;94.65;21.63;;;;;;;;;;5046269;28;20029;-70
2021/01/28 00:44:09;;;;;;;90.25;20.38;;;;;;;;;;5029217;28;20026;-70
2021/01/28 00:46:35;;;;;;;80.72;22.13;;;;;;;;;;5032938;28;20090;-70
2021/01/28 00:49:01;;;;;;;129.50;26.70;;;;;;;;;;5042457;28;20026;-70
2021/01/28 00:51:27;;;;;;;122.57;25.05;;;;;;;;;;5038684;28;20034;-70
2021/01/28 00:53:53;;;;;;;108.95;24.40;;;;;;;;;;5037802;28;20021;-70
2021/01/28 00:56:19;;;;;;;95.68;23.63;;;;;;;;;;5041814;28;20188;-70
2021/01/28 00:58:45;;;;;;;110.68;24.88;;;;;;;;;;5045698;28;20508;-70
2021/01/28 01:01:10;;;;;;;125.07;27.60;;;5.60;99.90;;;;;;5048585;28;20057;-69
2021/01/28 01:03:36;;;;;;;55.33;14.43;;;6.30;99.90;;;;;;5045037;28;20025;-70
2021/01/28 01:06:02;;;;;;;81.05;19.98;;;;;;;;;;5039895;28;20033;-70
2021/01/28 01:08:32;;;;;;;85.63;21.92;;;6.80;99.90;;;;;;5044447;28;20535;-70
2021/01/28 01:11:01;;;;;;;112.70;25.95;;;5.60;99.90;;;;;;5040526;28;20013;-70
2021/01/28 01:13:29;;;;;;;108.03;23.85;;;4.60;99.90;;;;;;5040906;28;20115;-70
2021/01/28 01:15:55;;;;;;;115.82;26.35;;;5.60;99.90;;;;;;5044199;28;20028;-69
2021/01/28 01:18:25;;;;;;;105.38;24.30;;;5.50;99.90;;;;;;5041148;28;20103;-69
2021/01/28 01:20:52;;;;;;;80.35;26.40;;;;;;;;;;5039725;28;20116;-69
2021/01/28 01:23:18;;;;;;;117.55;25.95;;;;;;;;;;5041839;28;20110;-70
2021/01/28 01:25:44;;;;;;;70.85;17.30;;;;;;;;;;5036839;28;20666;-69
2021/01/28 01:28:10;;;;;;;65.53;17.10;;;;;;;;;;5047380;28;20591;-69
2021/01/28 01:30:36;;;;;;;90.45;21.95;;;;;;;;;;5044827;28;20042;-69
2021/01/28 01:33:02;;;;;;;59.72;16.77;;;;;;;;;;5035762;28;20454;-69
2021/01/28 01:35:28;;;;;;;102.68;23.85;;;5.60;99.90;;;;;;5041127;28;20047;-70
2021/01/28 01:37:55;;;;;;;104.47;23.17;;;5.60;99.90;;;;;;5053141;28;20029;-70
2021/01/28 01:40:35;;;;;;;100.28;22.65;;;5.60;99.90;;;;;;5045842;28;20516;-68
2021/01/28 01:43:01;;;;;;;;;;;5.60;99.90;;;;;;5043107;28;20028;-69
2021/01/28 01:45:35;;;;;;;104.68;25.10;;;5.50;99.90;;;;;;5041915;28;20211;-70
2021/01/28 01:48:21;;;;;;;54.50;15.38;;;5.70;99.90;;;;;;5036592;28;20029;-69
2021/01/28 01:50:53;;;;;;;82.88;19.92;;;5.60;99.90;;;;;;5047561;28;20033;-69
2021/01/28 01:53:33;;;;;;;77.57;18.83;;;5.50;99.90;;;;;;5046542;28;20104;-69
2021/01/28 01:56:13;;;;;;;106.80;22.42;;;5.70;99.90;;;;;;5041332;28;20029;-69
2021/01/28 01:59:04;;;;;;;71.75;17.20;;;5.60;99.90;;;;;;5047537;28;20095;-69
2021/01/28 02:01:36;;;;;;;92.75;20.83;;;5.60;99.90;;;;;;5042716;28;20033;-69
2021/01/28 02:04:03;;;;;;;89.68;21.02;;;5.70;99.90;;;;;;5045558;28;20040;-69
2021/01/28 02:06:38;;;;;;;89.30;18.02;;;5.80;99.90;;;;;;5040521;28;20037;-69
2021/01/28 02:09:08;;;;;;;83.70;22.40;;;4.70;99.90;;;;;;5045830;28;20021;-67
2021/01/28 02:11:35;;;;;;;108.03;23.50;;;6.10;99.90;;;;;;5040284;28;20036;-67
2021/01/28 02:14:01;;;;;;;93.03;20.50;;;5.70;99.90;;;;;;5050565;28;20398;-69
2021/01/28 02:16:32;;;;;;;54.85;15.07;;;5.60;99.90;;;;;;5047092;28;20362;-69
2021/01/28 02:18:58;;;;;;;;;;;5.70;99.90;;;;;;5044423;28;20191;-70
2021/01/28 02:21:35;;;;;;;46.88;13.63;;;6.10;99.90;;;;;;5045994;28;20325;-69
2021/01/28 02:24:23;;;;;;;96.60;19.85;;;5.70;99.90;;;;;;5047791;28;20028;-69
2021/01/28 02:26:51;;;;;;;56.28;13.82;;;5.70;99.90;;;;;;5033732;28;20381;-68
2021/01/28 02:29:19;;;;;;;62.40;14.60;;;5.60;99.90;;;;;;5038525;28;20056;-68
2021/01/28 02:31:48;;;;;;;88.28;19.35;;;4.70;99.90;;;;;;5039771;28;20065;-69
2021/01/28 02:34:14;;;;;;;78.80;18.58;;;5.70;99.90;;;;;;5043166;28;20075;-70
2021/01/28 02:36:44;;;;;;;87.18;18.67;;;5.60;99.90;;;;;;5039386;28;20155;-70
2021/01/28 02:39:12;;;;;;;60.17;15.85;;;5.60;99.90;;;;;;5040282;28;20040;-69
2021/01/28 02:41:41;;;;;;;84.57;18.92;;;5.60;99.90;;;;;;5036422;28;20037;-69
2021/01/28 02:44:06;;;;;;;83.82;19.83;;;5.70;99.90;;;;;;5049136;28;20017;-67
2021/01/28 02:46:32;;;;;;;77.32;19.20;;;5.60;99.90;;;;;;5040652;28;20070;-69
2021/01/28 02:48:58;;;;;;;90.10;17.63;;;;;;;;;;5042936;28;20079;-67
2021/01/28 02:51:24;;;;;;;94.35;21.85;;;;;;;;;;5045798;28;20040;-67
2021/01/28 02:53:54;;;;;;;90.13;19.83;;;5.60;99.90;;;;;;5046314;28;20029;-67
2021/01/28 02:56:22;;;;;;;92.00;21.25;;;5.60;99.90;;;;;;5040250;28;20017;-67
2021/01/28 02:58:48;;;;;;;92.25;21.67;;;5.60;99.90;;;;;;5047448;28;20053;-67
2021/01/28 03:01:14;;;;;;;84.25;20.50;;;;;;;;;;5044506;28;20488;-70
2021/01/28 03:03:40;;;;;;;79.78;19.75;;;;;;;;;;5045122;28;20025;-67
2021/01/28 03:06:07;;;;;;;86.82;20.88;;;5.70;99.90;;;;;;5049178;28;20453;-67
2021/01/28 03:08:33;;;;;;;89.25;20.58;;;5.60;99.90;;;;;;5043507;28;20481;-69
2021/01/28 03:10:59;;;;;;;84.55;19.00;;;5.50;99.90;;;;;;5045939;28;20057;-67
2021/01/28 03:13:25;;;;;;;73.22;18.83;;;5.60;99.90;;;;;;5039911;28;20484;-67
2021/01/28 03:15:51;;;;;;;70.70;17.10;;;5.60;99.90;;;;;;5059277;28;20024;-69
2021/01/28 03:18:17;;;;;;;87.78;18.92;;;5.50;99.90;;;;;;5031183;28;20029;-67
2021/01/28 03:20:43;;;;;;;85.75;19.27;;;4.80;99.90;;;;;;5034561;28;20029;-67
2021/01/28 03:23:09;;;;;;;92.57;22.58;;;5.60;99.90;;;;;;5032412;28;20045;-69
2021/01/28 03:25:36;;;;;;;81.25;20.05;;;;;;;;;;5029951;28;20037;-67
2021/01/28 03:28:02;;;;;;;80.90;19.67;;;;;;;;;;5032244;28;20030;-67
2021/01/28 03:30:34;;;;;;;74.13;18.30;;;5.50;99.90;;;;;;5039329;28;20469;-67
2021/01/28 03:33:02;;;;;;;58.58;15.80;;;5.60;99.90;;;;;;5039906;28;20060;-67
2021/01/28 03:35:28;;;;;;;69.80;16.83;;;5.60;99.90;;;;;;5048310;28;20541;-69
2021/01/28 03:37:54;;;;;;;74.65;19.88;;;5.60;99.90;;;;;;5043319;28;20465;-69
2021/01/28 03:40:23;;;;;;;67.63;17.85;;;5.60;99.90;;;;;;5043942;28;20032;-69
2021/01/28 03:42:48;;;;;;;61.83;17.75;;;5.60;99.90;;;;;;5043589;28;20017;-69
2021/01/28 03:45:15;;;;;;;65.07;17.58;;;6.20;99.90;;;;;;5040663;28;20382;-69
2021/01/28 03:47:41;;;;;;;57.22;15.80;;;5.60;99.90;;;;;;5045122;28;20384;-69
2021/01/28 03:50:08;;;;;;;71.47;18.73;;;5.50;99.90;;;;;;5040586;28;20036;-68
2021/01/28 03:52:34;;;;;;;68.57;19.30;;;;;;;;;;5037567;28;20036;-67
2021/01/28 03:55:01;;;;;;;75.65;20.58;;;;;;;;;;5043550;28;20033;-67
2021/01/28 03:57:26;;;;;;;54.25;16.17;;;5.50;99.90;;;;;;5044641;28;20021;-67
2021/01/28 03:59:52;;;;;;;70.45;19.00;;;;;;;;;;5042987;28;20500;-67
2021/01/28 04:02:18;;;;;;;71.40;18.10;;;5.50;99.90;;;;;;5041095;28;21787;-67
2021/01/28 04:04:44;;;;;;;62.30;16.85;;;;;;;;;;5059842;28;20041;-67
2021/01/28 04:07:10;;;;;;;65.03;18.02;;;;;;;;;;5042498;28;20562;-67
2021/01/28 04:09:36;;;;;;;70.70;19.02;;;;;;;;;;5046066;28;20090;-67
2021/01/28 04:12:02;;;;;;;69.43;19.08;;;;;;;;;;5046382;28;20485;-67
2021/01/28 04:14:28;;;;;;;67.00;19.10;;;;;;;;;;5033766;28;20108;-67
2021/01/28 04:16:54;;;;;;;64.80;17.27;;;;;;;;;;5043125;28;20445;-67
2021/01/28 04:19:20;;;;;;;67.93;18.70;;;;;;;;;;5037616;28;20029;-67
2021/01/28 04:21:46;;;;;;;61.65;17.65;;;;;;;;;;5044286;28;20052;-67
2021/01/28 04:24:12;;;;;;;62.22;17.75;;;;;;;;;;5041001;28;20108;-69
2021/01/28 04:26:38;;;;;;;56.70;17.23;;;;;;;;;;5041571;28;20026;-69
2021/01/28 04:29:05;;;;;;;51.08;16.75;;;5.50;99.90;;;;;;5048066;28;20087;-67
2021/01/28 04:31:31;;;;;;;57.97;16.98;;;;;;;;;;5042987;28;20108;-67
2021/01/28 04:33:57;;;;;;;53.42;15.80;;;6.60;99.90;;;;;;5040257;28;20471;-69
2021/01/28 04:36:25;;;;;;;44.65;15.38;;;5.40;99.90;;;;;;5047286;28;20024;-69
2021/01/28 04:38:51;;;;;;;37.97;13.43;;;5.40;99.90;;;;;;5042652;28;20044;-69
2021/01/28 04:41:29;;;;;;;53.25;18.02;;;5.40;99.90;;;;;;5048731;28;20131;-68
2021/01/28 04:43:57;;;;;;;47.63;15.20;;;5.40;99.90;;;;;;5048537;28;20033;-69
2021/01/28 04:46:28;;;;;;;55.70;16.10;;;5.30;99.90;;;;;;5046069;28;20028;-69
2021/01/28 04:48:56;;;;;;;52.88;16.73;;;5.30;99.90;;;;;;5048269;28;20033;-68
2021/01/28 04:51:25;;;;;;;56.28;16.60;;;5.40;99.90;;;;;;5050139;28;20041;-68
2021/01/28 04:53:54;;;;;;;44.38;13.95;;;5.40;99.90;;;;;;5047197;28;20035;-68
2021/01/28 04:56:25;;;;;;;60.58;17.05;;;5.30;99.90;;;;;;5041923;28;20025;-69
2021/01/28 04:59:16;;;;;;;46.92;15.02;;;5.30;99.90;;;;;;5045703;28;20040;-68
2021/01/28 05:01:42;;;;;;;57.05;18.50;;;;;;;;;;5048607;28;20044;-68
2021/01/28 05:04:11;;;;;;;59.65;18.38;;;5.30;99.90;;;;;;5045403;28;20048;-68
2021/01/28 05:06:37;;;;;;;68.45;19.15;;;5.30;99.90;;;;;;5046205;28;20104;-68
2021/01/28 05:09:04;;;;;;;60.25;18.65;;;5.30;99.90;;;;;;5043885;28;20037;-68
2021/01/28 05:11:33;;;;;;;56.45;18.60;;;5.20;99.90;;;;;;5044299;28;20029;-68
2021/01/28 05:14:24;;;;;;;61.67;19.30;;;5.20;99.90;;;;;;5039622;28;20026;-68
2021/01/28 05:16:56;;;;;;;52.70;16.83;;;5.30;99.90;;;;;;5044122;28;20497;-68
2021/01/28 05:19:42;;;;;;;60.53;18.63;;;5.30;99.90;;;;;;5038663;28;20038;-67
2021/01/28 05:22:08;;;;;;;63.83;19.33;;;;;;;;;;5045838;28;20048;-68
2021/01/28 05:24:41;;;;;;;58.90;18.05;;;5.20;99.90;;;;;;5047447;28;20048;-68
2021/01/28 05:27:27;;;;;;;57.75;17.77;;;5.70;99.90;;;;;;5032765;28;20475;-68
2021/01/28 05:29:55;;;;;;;56.75;17.10;;;5.10;99.90;;;;;;5046647;28;20032;-68
2021/01/28 05:32:39;;;;;;;42.42;13.48;;;5.20;99.90;;;;;;5037310;28;20086;-68
2021/01/28 05:35:23;;;;;;;49.97;16.13;;;5.00;99.90;;;;;;5034312;28;20028;-68
2021/01/28 05:38:01;;;;;;;34.63;11.93;;;5.20;99.90;;;;;;5055590;28;20029;-70
2021/01/28 05:40:27;;;;;;;35.85;12.38;;;5.10;99.90;;;;;;5043126;28;20086;-70
2021/01/28 05:42:53;;;;;;;39.15;13.48;;;4.80;99.90;;;;;;5045565;28;20029;-68
2021/01/28 05:45:23;;;;;;;33.08;10.38;;;5.10;99.90;;;;;;5040395;28;20024;-68
2021/01/28 05:47:52;;;;;;;37.10;12.82;;;4.80;99.90;;;;;;5042299;28;20029;-68
2021/01/28 05:50:31;;;;;;;45.55;14.20;;;4.90;99.90;;;;;;5043460;28;20492;-67
2021/01/28 05:53:15;;;;;;;44.38;14.15;;;5.00;99.90;;;;;;5040617;28;20511;-67
2021/01/28 05:55:42;;;;;;;41.13;13.27;;;5.00;99.90;;;;;;5040983;28;20114;-67
2021/01/28 05:58:46;;;;;;;35.55;12.32;;;5.00;99.90;;;;;;5037030;28;20374;-67
2021/01/28 06:01:44;;;;;;;28.23;8.15;;;4.90;99.90;;;;;;5037636;28;20037;-67
2021/01/28 06:04:22;;;;;;;20.40;6.88;;;4.90;99.90;;;;;;5042456;28;20044;-69
2021/01/28 06:07:08;;;;;;;25.70;8.60;;;4.80;99.90;;;;;;5041930;28;20025;-69
2021/01/28 06:09:56;;;;;;;24.08;8.23;;;4.80;99.90;;;;;;5040926;28;20508;-67
2021/01/28 06:12:49;;;;;;;25.63;8.55;;;4.80;99.90;;;;;;5042822;28;20377;-68
2021/01/28 06:15:29;;;;;;;29.70;9.88;;;4.80;99.90;;;;;;5047561;28;20022;-67
2021/01/28 06:18:07;;;;;;;36.28;9.93;;;4.90;99.90;;;;;;5041087;28;20128;-68
2021/01/28 06:21:03;;;;;;;25.15;8.00;;;4.70;99.90;;;;;;5039017;28;20072;-68
2021/01/28 06:23:42;;;;;;;21.95;6.82;;;4.80;99.90;;;;;;5041843;28;20048;-68
2021/01/28 06:26:22;;;;;;;18.30;7.25;;;4.40;99.90;;;;;;5042815;28;20027;-70
2021/01/28 06:29:10;;;;;;;15.18;5.95;;;5.00;99.90;;;;;;5043419;28;20024;-68
2021/01/28 06:32:19;;;;;;;11.48;4.20;;;5.20;99.90;;;;;;5045190;28;20024;-68
2021/01/28 06:35:22;;;;;;;26.20;8.80;;;4.70;99.90;;;;;;5040399;28;20041;-67
2021/01/28 06:37:48;;;;;;;12.25;4.75;;;;;;;;;;5045073;28;20043;-67
2021/01/28 06:40:24;;;;;;;17.70;5.90;;;4.60;99.90;;;;;;5045171;28;20036;-67
2021/01/28 06:42:54;;;;;;;22.25;7.63;;;4.60;99.90;;;;;;5045444;28;20068;-67
2021/01/28 06:45:28;;;;;;;18.30;6.70;;;4.70;99.90;;;;;;5041304;28;20029;-68
2021/01/28 06:48:15;;;;;;;15.30;5.55;;;4.70;99.90;;;;;;5036857;28;20055;-68
2021/01/28 06:50:54;;;;;;;15.23;5.50;;;4.70;99.90;;;;;;5038251;28;20664;-69
2021/01/28 06:53:29;;;;;;;12.82;4.50;;;4.70;99.90;;;;;;5039547;28;20063;-69
2021/01/28 06:56:32;;;;;;;22.60;7.00;;;4.70;99.90;;;;;;5043680;28;20112;-69
2021/01/28 06:59:08;;;;;;;20.10;6.28;;;4.70;99.90;;;;;;5045160;28;20021;-71
2021/01/28 07:01:54;;;;;;;20.80;7.55;;;4.60;99.90;;;;;;5042063;28;20504;-70
2021/01/28 07:04:36;;;;;;;23.20;8.10;;;4.70;99.90;;;;;;5038036;28;20025;-70
2021/01/28 07:07:12;;;;;;;23.02;7.53;;;3.80;99.90;;;;;;5044982;28;20082;-70
2021/01/28 07:09:47;;;;;;;17.02;6.65;;;4.70;99.90;;;;;;5043011;28;20027;-70
2021/01/28 07:12:22;;;;;;;20.40;6.25;;;4.90;99.90;;;;;;5041075;28;20021;-70
2021/01/28 07:14:50;;;;;;;19.20;7.05;;;5.60;99.90;;;;;;5044430;28;20033;-71
2021/01/28 07:17:17;;;;;;;18.73;6.78;;;4.80;99.90;;;;;;5040973;28;20107;-70
2021/01/28 07:19:51;;;;;;;20.30;6.45;;;4.80;99.90;;;;;;5036637;28;20489;-71
2021/01/28 07:22:35;;;;;;;19.98;7.05;;;4.90;99.90;;;;;;5037542;28;20053;-71
2021/01/28 07:25:23;;;;;;;17.40;5.40;;;4.80;99.90;;;;;;5030585;28;20029;-70
2021/01/28 07:28:00;;;;;;;12.30;5.55;;;;;;;;;;5041627;28;20396;-70
2021/01/28 07:30:49;;;;;;;18.30;6.82;;;4.80;99.90;;;;;;5049806;28;20086;-70
2021/01/28 07:33:24;;;;;;;18.40;6.28;;;4.70;99.90;;;;;;5038550;28;20045;-70
2021/01/28 07:35:52;;;;;;;17.35;5.18;;;4.80;99.90;;;;;;5055366;28;20024;-69
2021/01/28 07:38:29;;;;;;;20.02;6.80;;;4.70;99.90;;;;;;5048091;28;20047;-68
2021/01/28 07:41:17;;;;;;;16.17;5.90;;;4.70;99.90;;;;;;5046852;28;20033;-69
2021/01/28 07:43:48;;;;;;;16.58;5.60;;;4.70;99.90;;;;;;5031349;28;20087;-69
2021/01/28 07:46:14;;;;;;;20.85;7.00;;;;;;;;;;5039153;28;20024;-72
2021/01/28 07:48:41;;;;;;;17.48;6.68;;;4.70;99.90;;;;;;5029982;28;20033;-72
2021/01/28 07:51:28;;;;;;;17.02;6.40;;;4.70;99.90;;;;;;5031418;28;20489;-71
2021/01/28 07:53:54;;;;;;;14.07;5.43;;;;;;;;;;5041939;28;20029;-72
2021/01/28 07:56:47;;;;;;;16.42;6.50;;;4.70;99.90;;;;;;5044412;28;20029;-71
2021/01/28 07:59:50;;;;;;;21.35;6.53;;;4.60;99.90;;;;;;5032320;28;20051;-71
2021/01/28 08:02:16;;;;;;;16.08;6.38;;;;;;;;;;5032269;28;20037;-71
2021/01/28 08:05:08;;;;;;;16.33;6.63;;;4.70;99.90;;;;;;5040213;28;20250;-71
2021/01/28 08:07:39;;;;;;;16.42;6.28;;;4.60;99.90;;;;;;5026937;28;20056;-71
2021/01/28 08:10:07;;;;;;;15.88;6.55;;;4.60;99.90;;;;;;5045781;28;20480;-71
2021/01/28 08:12:44;;;;;;;15.43;6.28;;;4.60;99.90;;;;;;5044422;28;20131;-71
2021/01/28 08:15:18;;;;;;;18.48;7.10;;;4.70;99.90;;;;;;5059784;28;20020;-71
2021/01/28 08:17:43;;;;;;;19.33;7.40;;;4.80;99.90;;;;;;5039624;28;20544;-71
2021/01/28 08:20:14;;;;;;;19.50;7.43;;;4.80;99.90;;;;;;5045812;28;20135;-67
2021/01/28 08:22:55;;;;;;;;;;;4.70;99.90;;;;;;5043508;28;20056;-68
2021/01/28 08:25:21;;;;;;;;;;;4.80;99.90;;;;;;5050824;28;19909;-68
2021/01/28 08:27:47;;;;;;;21.50;8.23;;;4.90;99.90;;;;;;5044834;28;19990;-68
2021/01/28 08:30:23;;;;;;;21.05;8.00;;;4.90;99.90;;;;;;5049326;28;20418;-68
2021/01/28 08:32:55;;;;;;;26.85;11.55;;;5.10;99.90;;;;;;5048012;28;20025;-68
2021/01/28 08:35:23;;;;;;;27.10;10.70;;;5.00;99.90;;;;;;5037991;28;20083;-68
2021/01/28 08:37:49;;;;;;;16.58;6.15;;;;;;;;;;5047668;28;20043;-68
2021/01/28 08:40:23;;;;;;;16.88;6.25;;;4.90;99.90;;;;;;5048773;28;20484;-68
2021/01/28 08:42:49;;;;;;;15.95;5.60;;;5.10;99.90;;;;;;5042739;28;20380;-70
2021/01/28 08:45:18;;;;;;;15.02;5.85;;;;;;;;;;5043036;28;20091;-70
2021/01/28 08:48:04;;;;;;;12.43;4.88;;;6.70;99.90;;;;;;5040055;28;20639;-70
2021/01/28 08:50:30;;;;;;;18.05;8.13;;;;;;;;;;5042203;28;20040;-70
2021/01/28 08:53:06;;;;;;;18.13;8.52;;;4.90;99.90;;;;;;5043270;28;20491;-68
2021/01/28 08:55:35;;;;;;;31.40;13.40;;;4.90;99.90;;;;;;5057263;28;20032;-67
2021/01/28 08:58:34;;;;;;;26.33;11.57;;;4.70;99.90;;;;;;5044401;28;20025;-68
2021/01/28 09:01:02;;;;;;;22.13;9.05;;;4.60;99.90;;;;;;5038909;28;20043;-68
2021/01/28 09:03:40;;;;;;;15.30;6.60;;;4.80;99.90;;;;;;5043818;28;20032;-69
2021/01/28 09:06:06;;;;;;;17.45;6.50;;;;;;;;;;5035927;28;20127;-68
2021/01/28 09:08:40;;;;;;;16.90;6.45;;;5.00;99.90;;;;;;5042595;28;20598;-68
2021/01/28 09:11:21;;;;;;;13.70;5.97;;;4.70;99.90;;;;;;5049541;28;20045;-68
2021/01/28 09:14:28;;;;;;;16.20;6.35;;;5.00;99.90;;;;;;5046820;28;20021;-68
2021/01/28 09:17:08;;;;;;;16.80;5.93;;;4.80;99.90;;;;;;5041725;28;20484;-68
2021/01/28 09:19:36;;;;;;;12.70;5.03;;;5.00;99.90;;;;;;5043926;28;20072;-68
2021/01/28 09:22:05;;;;;;;14.55;5.20;;;5.50;99.90;;;;;;5043369;28;20738;-69
2021/01/28 09:24:48;;;;;;;15.60;5.57;;;5.00;99.90;;;;;;5042873;28;20032;-68
2021/01/28 09:27:18;;;;;;;15.30;4.88;;;5.00;99.90;;;;;;5039384;28;20203;-68
2021/01/28 09:29:45;;;;;;;12.13;5.22;;;4.30;99.90;;;;;;5046103;28;20265;-68
2021/01/28 09:32:17;;;;;;;10.95;4.53;;;4.80;99.90;;;;;;5047345;28;20029;-68
2021/01/28 09:34:43;;;;;;;9.88;4.78;;;3.90;99.90;;;;;;5042782;28;20570;-68
2021/01/28 09:37:18;;;;;;;11.60;4.57;;;4.80;99.90;;;;;;5044952;28;20024;-69
2021/01/28 09:39:51;;;;;;;12.88;4.68;;;7.70;99.90;;;;;;5045819;28;20072;-68
2021/01/28 09:42:28;;;;;;;11.75;4.20;;;4.80;99.90;;;;;;5043852;28;20021;-68
2021/01/28 09:44:54;;;;;;;10.98;4.57;;;4.00;99.90;;;;;;5045986;28;20017;-68
2021/01/28 09:47:30;;;;;;;12.35;4.63;;;4.70;99.90;;;;;;5047819;28;20718;-68
2021/01/28 09:50:01;;;;;;;11.38;5.22;;;4.70;99.90;;;;;;5051085;28;20138;-68
2021/01/28 09:52:39;;;;;;;11.80;5.20;;;4.50;99.90;;;;;;5050413;28;20083;-69
2021/01/28 09:55:12;;;;;;;11.65;4.88;;;4.40;99.90;;;;;;5042181;28;20087;-68
2021/01/28 09:57:38;;;;;;;12.48;5.72;;;;;;;;;;5044593;28;20071;-68
2021/01/28 10:00:10;;;;;;;15.65;5.57;;;4.70;99.90;;;;;;5061900;28;20041;-68
2021/01/28 10:03:14;;;;;;;14.55;6.60;;;5.50;99.90;;;;;;5046432;28;20036;-68
2021/01/28 10:05:40;;;;;;;17.17;6.65;;;;;;;;;;5041789;28;20371;-68
2021/01/28 10:08:06;;;;;;;16.17;6.90;;;;;;;;;;5042950;28;20044;-68
2021/01/28 10:10:33;;;;;;;12.90;6.10;;;4.30;99.90;;;;;;5059437;28;20032;-68
2021/01/28 10:13:05;;;;;;;14.95;6.53;;;4.60;99.90;;;;;;5047671;28;20378;-68
2021/01/28 10:15:31;;;;;;;17.30;7.28;;;;;;;;;;5038428;28;20030;-68
2021/01/28 10:17:59;;;;;;;17.90;6.95;;;;;;;;;;5047942;28;20074;-67
2021/01/28 10:20:25;;;;;;;15.55;6.47;;;;;;;;;;5036371;28;20029;-68
2021/01/28 10:22:52;;;;;;;15.02;6.32;;;5.00;99.90;;;;;;5039732;28;20053;-68
2021/01/28 10:25:20;;;;;;;14.50;6.32;;;4.80;99.90;;;;;;5040665;28;20110;-68
2021/01/28 10:27:46;;;;;;;15.48;6.32;;;;;;;;;;5039406;28;20026;-68
2021/01/28 10:30:15;;;;;;;16.83;7.70;;;4.90;99.90;;;;;;5043696;28;20044;-68
2021/01/28 10:32:44;;;;;;;17.45;6.93;;;4.80;99.90;;;;;;5048355;28;20029;-70
2021/01/28 10:35:11;;;;;;;19.55;6.68;;;4.80;99.90;;;;;;5038168;28;20500;-70
2021/01/28 10:37:37;;;;;;;15.07;6.45;;;4.70;99.90;;;;;;5046732;28;20071;-70
2021/01/28 10:40:04;;;;;;;13.82;5.80;;;5.00;99.90;;;;;;5045383;28;20499;-70
2021/01/28 10:42:38;;;;;;;16.38;6.38;;;5.10;99.90;;;;;;5045163;28;20082;-70
2021/01/28 10:45:24;;;;;;;12.60;5.55;;;4.90;99.90;;;;;;5044750;28;20029;-70
2021/01/28 10:47:51;;;;;;;15.90;6.35;;;;;;;;;;5033711;28;20042;-70
2021/01/28 10:50:20;;;;;;;14.65;5.85;;;5.10;99.90;;;;;;5052462;28;20032;-67
2021/01/28 10:52:54;;;;;;;13.90;6.20;;;;;;;;;;5064164;28;20418;-68
2021/01/28 10:55:22;;;;;;;16.45;5.28;;;5.00;99.90;;;;;;5043289;28;20021;-69
2021/01/28 10:57:48;;;;;;;12.52;5.53;;;;;;;;;;5043383;28;20025;-69
2021/01/28 11:00:15;;;;;;;13.23;5.45;;;5.00;99.90;;;;;;5046473;28;20481;-68
2021/01/28 11:02:40;;;;;;;13.45;5.90;;;4.90;99.90;;;;;;5036292;28;20040;-69
2021/01/28 11:05:12;;;;;;;13.80;5.40;;;4.90;99.90;;;;;;5039946;28;20056;-69
2021/01/28 11:07:38;;;;;;;15.10;5.53;;;;;;;;;;5036350;28;20493;-69
2021/01/28 11:10:04;;;;;;;13.93;5.85;;;;;;;;;;5036075;28;20060;-69
2021/01/28 11:12:30;;;;;;;14.40;6.32;;;;;;;;;;5042374;28;20111;-69
2021/01/28 11:14:56;;;;;;;13.75;4.75;;;;;;;;;;5048098;28;20116;-68
2021/01/28 11:17:22;;;;;;;15.60;5.93;;;;;;;;;;5043935;28;20570;-68
2021/01/28 11:19:48;;;;;;;14.20;5.60;;;;;;;;;;5045309;28;20025;-69
2021/01/28 11:22:14;;;;;;;13.63;5.35;;;;;;;;;;5041065;28;20033;-68
2021/01/28 11:24:40;;;;;;;12.25;5.45;;;;;;;;;;5044738;28;20032;-69
2021/01/28 11:27:06;;;;;;;13.77;5.55;;;;;;;;;;5032344;28;20168;-69
2021/01/28 11:29:32;;;;;;;12.00;4.97;;;;;;;;;;5023299;28;20029;-69
2021/01/28 11:31:58;;;;;;;13.45;5.32;;;;;;;;;;5044687;28;20126;-69
2021/01/28 11:34:27;;;;;;;13.05;5.10;;;;;;;;;;5035419;28;20052;-69
2021/01/28 11:36:53;;;;;;;11.80;5.20;;;5.30;99.90;;;;;;5037794;28;20495;-69
2021/01/28 11:39:19;;;;;;;11.15;5.30;;;5.60;99.90;;;;;;5039009;28;20029;-69
2021/01/28 11:41:45;;;;;;;12.38;5.18;;;;;;;;;;5034436;28;20044;-69
2021/01/28 11:44:11;;;;;;;13.80;5.63;;;;;;;;;;5041692;28;20025;-69
2021/01/28 11:46:37;;;;;;;12.63;5.53;;;;;;;;;;5041323;28;20155;-69
2021/01/28 11:49:03;;;;;;;12.77;5.28;;;5.30;99.90;;;;;;5041913;28;20098;-69
2021/01/28 11:51:29;;;;;;;12.25;5.28;;;;;;;;;;5041566;28;20123;-70
2021/01/28 11:53:55;;;;;;;12.88;5.75;;;;;;;;;;5043056;28;20036;-69
2021/01/28 11:56:21;;;;;;;14.82;5.47;;;;;;;;;;5045104;28;20029;-69
2021/01/28 11:58:47;;;;;;;14.30;5.60;;;;;;;;;;5035448;28;20032;-69
2021/01/28 12:01:13;;;;;;;12.98;5.30;;;5.30;99.90;;;;;;5028764;28;20474;-69
2021/01/28 12:03:39;;;;;;;14.00;6.03;;;;;;;;;;5022451;28;20111;-69
2021/01/28 12:06:04;;;;;;;15.43;6.65;;;4.80;99.90;;;;;;5026818;28;20032;-69
2021/01/28 12:08:30;;;;;;;13.93;5.45;;;;;;;;;;5023488;28;20043;-70
2021/01/28 12:10:56;;;;;;;18.08;5.90;;;;;;;;;;5018202;28;20046;-69
2021/01/28 12:13:22;;;;;;;13.50;5.82;;;;;;;;;;5023266;28;20025;-69
2021/01/28 12:15:48;;;;;;;27.23;6.65;;;;;;;;;;5024824;28;20392;-69
2021/01/28 12:18:14;;;;;;;17.20;5.85;;;;;;;;;;5024267;28;20017;-69
2021/01/28 12:20:40;;;;;;;12.10;4.43;;;;;;;;;;5030413;28;20029;-69
2021/01/28 12:23:06;;;;;;;12.88;5.95;;;;;;;;;;5029595;28;20646;-69
2021/01/28 12:25:32;;;;;;;12.20;5.50;;;;;;;;;;5034098;28;20029;-69
2021/01/28 12:27:58;;;;;;;14.35;5.88;;;;;;;;;;5030580;28;20023;-69
2021/01/28 12:30:25;;;;;;;15.88;5.82;;;4.80;99.90;;;;;;5018752;28;20018;-69
2021/01/28 12:32:52;;;;;;;17.25;7.18;;;4.90;99.90;;;;;;5026086;28;20049;-69
2021/01/28 12:35:19;;;;;;;19.38;6.57;;;4.90;99.90;;;;;;5019529;28;20040;-68
2021/01/28 12:37:45;;;;;;;17.65;6.90;;;5.20;99.90;;;;;;5023510;28;20810;-69
2021/01/28 12:40:15;;;;;;;15.05;6.75;;;4.90;99.90;;;;;;5031717;28;20025;-69
2021/01/28 12:42:41;;;;;;;15.00;6.72;;;5.10;99.90;;;;;;5029900;28;20905;-69
2021/01/28 12:45:07;;;;;;;16.38;6.97;;;5.20;99.90;;;;;;5026593;28;20031;-69
2021/01/28 12:47:33;;;;;;;15.43;6.55;;;4.60;99.90;;;;;;5032520;28;20033;-69
2021/01/28 12:49:59;;;;;;;17.88;6.18;;;;;;;;;;5022789;28;20033;-69
2021/01/28 12:52:25;;;;;;;14.30;6.57;;;;;;;;;;5019338;28;20554;-69
2021/01/28 12:54:51;;;;;;;16.73;6.40;;;;;;;;;;5026947;28;20683;-69
2021/01/28 12:57:17;;;;;;;17.10;7.07;;;;;;;;;;5031918;28;20415;-69
2021/01/28 12:59:45;;;;;;;19.95;6.72;;;5.50;99.90;;;;;;5029804;28;20064;-69
2021/01/28 13:02:11;;;;;;;16.38;6.78;;;;;;;;;;5034076;28;20094;-69
2021/01/28 13:04:36;;;;;;;19.50;6.38;;;5.30;99.90;;;;;;5017840;28;20473;-69
2021/01/28 13:07:02;;;;;;;18.50;7.40;;;;;;;;;;5025287;28;20033;-69
2021/01/28 13:09:29;;;;;;;19.58;7.47;;;;;;;;;;5012448;28;20502;-69
2021/01/28 13:11:55;;;;;;;22.00;10.18;;;;;;;;;;5025467;28;20045;-69
2021/01/28 13:14:21;;;;;;;21.83;9.57;;;;;;;;;;5021947;28;20033;-69
2021/01/28 13:16:46;;;;;;;23.00;9.23;;;5.60;99.90;;;;;;5024919;28;20122;-69
2021/01/28 13:19:12;;;;;;;22.30;9.98;;;5.90;99.90;;;;;;5038498;28;20402;-68
2021/01/28 13:21:38;;;;;;;19.70;8.13;;;;;;;;;;5023688;28;20052;-69
2021/01/28 13:24:04;;;;;;;15.43;7.05;;;;;;;;;;5028706;28;20532;-68
2021/01/28 13:26:30;;;;;;;19.20;8.23;;;;;;;;;;5024176;28;20033;-68
2021/01/28 13:28:57;;;;;;;18.50;9.02;;;;;;;;;;5020986;28;20025;-68
2021/01/28 13:31:22;;;;;;;15.40;7.38;;;6.10;99.90;;;;;;5026721;28;20041;-68